createdAt,value
2017-08-29T00:01:17.479Z,19.40
2017-08-29T00:03:46.430Z,19.40
2017-08-29T00:06:14.992Z,19.30
2017-08-29T00:08:43.692Z,19.40
2017-08-29T00:11:12.365Z,19.40
2017-08-29T00:13:40.915Z,19.30
2017-08-29T00:16:09.893Z,19.20
2017-08-29T00:18:38.497Z,19.20
2017-08-29T00:21:07.263Z,19.40
2017-08-29T00:23:35.734Z,19.50
2017-08-29T00:26:04.605Z,19.70
2017-08-29T00:28:33.446Z,19.50
2017-08-29T00:31:02.600Z,19.50
2017-08-29T00:33:31.320Z,19.80
2017-08-29T00:36:00.079Z,19.90
2017-08-29T00:38:28.943Z,20.00
2017-08-29T00:40:57.351Z,19.80
2017-08-29T00:43:26.052Z,19.60
2017-08-29T00:45:55.035Z,19.30
2017-08-29T00:48:23.278Z,19.20
2017-08-29T00:50:51.752Z,19.30
2017-08-29T00:53:20.034Z,19.30
2017-08-29T00:55:48.669Z,19.10
2017-08-29T00:58:17.192Z,19.00
2017-08-29T01:00:46.133Z,18.90
2017-08-29T01:03:14.383Z,18.90
2017-08-29T01:05:42.634Z,19.00
2017-08-29T01:08:10.915Z,19.30
2017-08-29T01:10:39.385Z,19.30
2017-08-29T01:13:07.656Z,19.00
2017-08-29T01:15:35.992Z,18.90
2017-08-29T01:18:04.244Z,18.90
2017-08-29T01:20:32.504Z,19.00
2017-08-29T01:23:00.753Z,19.10
2017-08-29T01:25:29.005Z,19.00
2017-08-29T01:27:57.406Z,19.00
2017-08-29T01:30:25.685Z,18.90
2017-08-29T01:32:53.921Z,18.70
2017-08-29T01:35:22.201Z,18.60
2017-08-29T01:37:50.454Z,18.40
2017-08-29T01:40:18.723Z,18.40
2017-08-29T01:42:47.236Z,18.40
2017-08-29T01:45:15.476Z,18.30
2017-08-29T01:47:43.764Z,18.20
2017-08-29T01:50:13.021Z,18.10
2017-08-29T01:52:41.273Z,18.00
2017-08-29T01:55:09.560Z,18.00
2017-08-29T01:57:37.816Z,18.00
2017-08-29T02:00:06.059Z,18.00
2017-08-29T02:02:34.372Z,17.90
2017-08-29T02:05:02.626Z,17.90
2017-08-29T02:07:30.867Z,17.90
2017-08-29T02:09:59.206Z,17.90
2017-08-29T02:12:27.445Z,17.90
2017-08-29T02:14:55.686Z,17.90
2017-08-29T02:17:23.961Z,17.90
2017-08-29T02:19:52.209Z,18.00
2017-08-29T02:22:20.484Z,17.80
2017-08-29T02:24:48.754Z,17.80
2017-08-29T02:27:17.226Z,17.80
2017-08-29T02:29:54.879Z,17.70
2017-08-29T02:32:23.143Z,17.70
2017-08-29T02:34:51.449Z,17.60
2017-08-29T02:37:19.953Z,17.50
2017-08-29T02:39:48.215Z,17.50
2017-08-29T02:42:16.529Z,17.50
2017-08-29T02:44:44.828Z,17.50
2017-08-29T02:47:13.105Z,17.40
2017-08-29T02:49:41.357Z,17.40
2017-08-29T02:52:09.628Z,17.30
2017-08-29T02:54:37.873Z,17.30
2017-08-29T02:57:06.128Z,17.30
2017-08-29T02:59:34.414Z,17.30
2017-08-29T03:02:02.681Z,17.40
2017-08-29T03:04:31.168Z,17.30
2017-08-29T03:06:59.431Z,17.20
2017-08-29T03:09:27.724Z,17.10
2017-08-29T03:11:55.964Z,17.00
2017-08-29T03:14:24.418Z,16.90
2017-08-29T03:16:52.674Z,16.90
2017-08-29T03:19:20.949Z,16.80
2017-08-29T03:21:49.235Z,16.90
2017-08-29T03:24:17.492Z,16.90
2017-08-29T03:26:45.777Z,16.80
2017-08-29T03:29:14.057Z,16.70
2017-08-29T03:31:42.313Z,16.70
2017-08-29T03:34:10.561Z,16.70
2017-08-29T03:36:38.849Z,16.70
2017-08-29T03:39:07.307Z,16.70
2017-08-29T03:41:35.565Z,16.70
2017-08-29T03:44:03.991Z,16.70
2017-08-29T03:46:32.229Z,16.70
2017-08-29T03:49:00.463Z,16.70
2017-08-29T03:51:28.795Z,16.80
2017-08-29T03:53:57.041Z,16.80
2017-08-29T03:56:25.287Z,16.80
2017-08-29T03:58:54.279Z,16.80
2017-08-29T04:01:23.404Z,16.80
2017-08-29T04:03:51.671Z,16.90
2017-08-29T04:06:19.963Z,16.90
2017-08-29T04:08:48.445Z,16.80
2017-08-29T04:11:16.740Z,16.80
2017-08-29T04:13:45.055Z,16.80
2017-08-29T04:16:13.334Z,16.90
2017-08-29T04:18:41.582Z,16.70
2017-08-29T04:21:09.871Z,16.80
2017-08-29T04:23:38.136Z,16.80
2017-08-29T04:26:06.398Z,16.80
2017-08-29T04:28:34.696Z,16.80
2017-08-29T04:31:03.316Z,16.70
2017-08-29T04:33:31.557Z,16.60
2017-08-29T04:36:00.058Z,16.60
2017-08-29T04:38:28.300Z,16.60
2017-08-29T04:40:56.772Z,16.70
2017-08-29T04:43:25.178Z,16.80
2017-08-29T04:45:53.453Z,17.00
2017-08-29T04:48:21.954Z,17.00
2017-08-29T04:50:50.487Z,16.80
2017-08-29T04:53:18.744Z,16.80
2017-08-29T04:55:46.995Z,16.90
2017-08-29T04:58:15.272Z,17.00
2017-08-29T05:00:43.536Z,17.00
2017-08-29T05:03:12.029Z,16.90
2017-08-29T05:05:41.039Z,16.90
2017-08-29T05:08:09.316Z,17.00
2017-08-29T05:10:37.762Z,17.00
2017-08-29T05:13:06.190Z,17.00
2017-08-29T05:15:34.447Z,17.00
2017-08-29T05:18:02.713Z,17.00
2017-08-29T05:20:31.048Z,17.00
2017-08-29T05:22:59.290Z,17.00
2017-08-29T05:25:27.530Z,17.00
2017-08-29T05:27:55.985Z,17.00
2017-08-29T05:30:24.253Z,17.10
2017-08-29T05:32:52.499Z,17.10
2017-08-29T05:35:20.819Z,17.10
2017-08-29T05:37:49.075Z,17.40
2017-08-29T05:40:18.953Z,17.50
2017-08-29T05:42:47.280Z,17.80
2017-08-29T05:45:15.530Z,18.30
2017-08-29T05:47:44.040Z,18.70
2017-08-29T05:50:12.450Z,19.10
2017-08-29T05:52:40.704Z,19.60
2017-08-29T05:55:08.947Z,20.10
2017-08-29T05:57:37.232Z,20.40
2017-08-29T06:00:05.523Z,20.40
2017-08-29T06:02:33.937Z,20.70
2017-08-29T06:05:02.336Z,20.90
2017-08-29T06:07:30.585Z,21.10
2017-08-29T06:09:58.862Z,21.20
2017-08-29T06:12:27.128Z,21.50
2017-08-29T06:14:55.393Z,22.00
2017-08-29T06:17:23.674Z,22.40
2017-08-29T06:19:52.105Z,22.70
2017-08-29T06:22:20.352Z,22.80
2017-08-29T06:24:48.629Z,23.20
2017-08-29T06:27:17.047Z,23.20
2017-08-29T06:29:45.330Z,23.30
2017-08-29T06:32:13.642Z,23.50
2017-08-29T06:34:41.943Z,23.70
2017-08-29T06:37:10.402Z,23.60
2017-08-29T06:39:38.638Z,23.50
2017-08-29T06:42:07.152Z,23.80
2017-08-29T06:44:35.417Z,23.80
2017-08-29T06:47:03.662Z,23.70
2017-08-29T06:49:31.929Z,24.10
2017-08-29T06:52:00.233Z,24.40
2017-08-29T06:54:28.493Z,24.40
2017-08-29T06:56:56.996Z,24.10
2017-08-29T06:59:25.241Z,24.00
2017-08-29T07:01:53.486Z,23.90
2017-08-29T07:04:21.945Z,24.10
2017-08-29T07:06:50.199Z,24.30
2017-08-29T07:09:18.473Z,24.20
2017-08-29T07:11:46.773Z,24.40
2017-08-29T07:14:15.096Z,24.50
2017-08-29T07:16:43.405Z,24.20
2017-08-29T07:19:11.791Z,23.50
2017-08-29T07:21:40.155Z,22.90
2017-08-29T07:24:08.470Z,22.50
2017-08-29T07:26:37.005Z,22.50
2017-08-29T07:29:05.338Z,21.60
2017-08-29T07:31:33.597Z,21.50
2017-08-29T07:34:02.077Z,21.90
2017-08-29T07:36:30.411Z,22.40
2017-08-29T07:38:58.675Z,22.80
2017-08-29T07:41:27.017Z,23.40
2017-08-29T07:43:55.325Z,23.70
2017-08-29T07:46:23.578Z,23.90
2017-08-29T07:48:51.858Z,23.90
2017-08-29T07:51:20.114Z,23.80
2017-08-29T07:53:48.477Z,24.10
2017-08-29T07:56:16.898Z,24.10
2017-08-29T07:58:45.183Z,24.00
2017-08-29T08:01:13.423Z,23.50
2017-08-29T08:03:41.913Z,23.40
2017-08-29T08:06:10.157Z,23.10
2017-08-29T08:08:38.433Z,22.70
2017-08-29T08:11:06.884Z,23.40
2017-08-29T08:13:35.115Z,24.40
2017-08-29T08:16:03.401Z,24.80
2017-08-29T08:18:31.670Z,24.20
2017-08-29T08:21:00.291Z,23.30
2017-08-29T08:23:28.515Z,23.20
2017-08-29T08:25:57.128Z,23.40
2017-08-29T08:28:25.388Z,23.50
2017-08-29T08:30:53.624Z,23.60
2017-08-29T08:33:21.903Z,24.20
2017-08-29T08:35:50.148Z,25.00
2017-08-29T08:38:18.461Z,25.20
2017-08-29T08:40:46.736Z,24.60
2017-08-29T08:43:14.979Z,24.30
2017-08-29T08:45:43.210Z,24.90
2017-08-29T08:48:11.525Z,25.20
2017-08-29T08:50:39.763Z,25.40
2017-08-29T08:53:08.006Z,25.60
2017-08-29T08:55:36.289Z,25.80
2017-08-29T08:58:04.542Z,25.60
2017-08-29T09:00:32.794Z,25.10
2017-08-29T09:03:01.044Z,23.90
2017-08-29T09:05:29.285Z,24.00
2017-08-29T09:07:57.529Z,24.00
2017-08-29T09:10:26.065Z,23.90
2017-08-29T09:12:54.296Z,24.10
2017-08-29T09:15:22.551Z,25.40
2017-08-29T09:17:50.828Z,25.90
2017-08-29T09:20:19.072Z,26.10
2017-08-29T09:22:47.586Z,25.80
2017-08-29T09:25:15.853Z,25.70
2017-08-29T09:27:44.092Z,26.20
2017-08-29T09:30:12.337Z,26.30
2017-08-29T09:32:40.837Z,26.50
2017-08-29T09:35:09.128Z,26.40
2017-08-29T09:37:37.363Z,26.40
2017-08-29T09:40:05.773Z,25.80
2017-08-29T09:42:34.095Z,25.30
2017-08-29T09:45:02.340Z,24.80
2017-08-29T09:47:30.630Z,25.00
2017-08-29T09:49:58.885Z,25.70
2017-08-29T09:52:27.144Z,25.80
2017-08-29T09:54:55.471Z,26.50
2017-08-29T09:57:23.708Z,26.70
2017-08-29T09:59:51.977Z,26.00
2017-08-29T10:02:20.441Z,25.90
2017-08-29T10:04:48.696Z,26.70
2017-08-29T10:07:16.975Z,27.40
2017-08-29T10:09:45.242Z,28.10
2017-08-29T10:12:13.491Z,28.90
2017-08-29T10:14:41.787Z,29.40
2017-08-29T10:17:10.335Z,29.70
2017-08-29T10:19:38.619Z,30.30
2017-08-29T10:22:06.876Z,30.80
2017-08-29T10:24:35.961Z,31.10
2017-08-29T10:27:04.208Z,31.40
2017-08-29T10:29:32.451Z,31.50
2017-08-29T10:32:00.786Z,30.90
2017-08-29T10:34:29.060Z,30.40
2017-08-29T10:36:57.310Z,30.50
2017-08-29T10:39:25.562Z,30.20
2017-08-29T10:41:53.909Z,30.60
2017-08-29T10:44:22.152Z,31.00
2017-08-29T10:46:50.441Z,31.30
2017-08-29T10:49:18.695Z,31.50
2017-08-29T10:51:46.933Z,31.60
2017-08-29T10:54:15.627Z,31.30
2017-08-29T10:56:44.676Z,31.00
2017-08-29T10:59:12.915Z,31.10
2017-08-29T11:01:41.791Z,31.30
2017-08-29T11:04:10.666Z,31.60
2017-08-29T11:06:38.917Z,31.50
2017-08-29T11:09:07.338Z,31.20
2017-08-29T11:11:35.586Z,31.50
2017-08-29T11:14:03.824Z,31.50
2017-08-29T11:16:32.139Z,31.80
2017-08-29T11:19:00.400Z,31.70
2017-08-29T11:21:28.711Z,31.70
2017-08-29T11:23:57.169Z,32.20
2017-08-29T11:26:25.442Z,32.20
2017-08-29T11:28:53.765Z,32.10
2017-08-29T11:31:22.201Z,31.50
2017-08-29T11:33:50.498Z,31.60
2017-08-29T11:36:18.861Z,31.40
2017-08-29T11:38:47.147Z,31.40
2017-08-29T11:41:15.402Z,32.00
2017-08-29T11:43:43.652Z,32.20
2017-08-29T11:46:11.987Z,32.20
2017-08-29T11:48:40.283Z,32.10
2017-08-29T11:51:08.583Z,32.00
2017-08-29T11:53:37.005Z,32.30
2017-08-29T11:56:05.276Z,32.40
2017-08-29T11:58:33.523Z,32.50
2017-08-29T12:01:01.823Z,32.60
2017-08-29T12:03:30.112Z,32.60
2017-08-29T12:05:58.367Z,32.60
2017-08-29T12:08:26.639Z,32.50
2017-08-29T12:10:55.856Z,32.70
2017-08-29T12:13:24.103Z,32.50
2017-08-29T12:15:52.381Z,32.70
2017-08-29T12:18:20.637Z,33.00
2017-08-29T12:20:48.904Z,33.40
2017-08-29T12:23:17.436Z,33.40
2017-08-29T12:25:45.710Z,33.30
2017-08-29T12:28:13.948Z,33.40
2017-08-29T12:30:42.262Z,33.80
2017-08-29T12:33:10.543Z,34.00
2017-08-29T12:35:38.895Z,34.10
2017-08-29T12:38:07.164Z,34.10
2017-08-29T12:40:37.069Z,34.40
2017-08-29T12:43:05.462Z,34.50
2017-08-29T12:45:33.905Z,34.60
2017-08-29T12:48:02.209Z,34.00
2017-08-29T12:50:30.479Z,33.90
2017-08-29T12:52:58.770Z,33.80
2017-08-29T12:55:27.031Z,33.90
2017-08-29T12:57:55.297Z,34.10
2017-08-29T13:00:23.721Z,34.10
2017-08-29T13:02:52.004Z,34.00
2017-08-29T13:05:20.280Z,33.80
2017-08-29T13:07:48.635Z,33.60
2017-08-29T13:10:16.875Z,33.60
2017-08-29T13:12:45.151Z,33.00
2017-08-29T13:15:13.552Z,33.00
2017-08-29T13:17:41.834Z,32.80
2017-08-29T13:20:10.084Z,32.90
2017-08-29T13:22:38.374Z,33.00
2017-08-29T13:25:06.621Z,33.20
2017-08-29T13:27:34.883Z,33.50
2017-08-29T13:30:03.178Z,33.50
2017-08-29T13:32:31.461Z,33.50
2017-08-29T13:34:59.759Z,33.40
2017-08-29T13:37:28.204Z,33.10
2017-08-29T13:39:56.443Z,32.80
2017-08-29T13:42:24.688Z,32.80
2017-08-29T13:44:53.752Z,32.60
2017-08-29T13:47:22.008Z,32.40
2017-08-29T13:49:50.741Z,32.40
2017-08-29T13:52:19.022Z,32.60
2017-08-29T13:54:47.333Z,32.70
2017-08-29T13:57:15.728Z,32.90
2017-08-29T13:59:44.169Z,33.30
2017-08-29T14:02:12.416Z,33.70
2017-08-29T14:04:40.667Z,33.50
2017-08-29T14:07:09.064Z,33.40
2017-08-29T14:09:37.352Z,33.30
2017-08-29T14:12:05.816Z,33.10
2017-08-29T14:14:34.453Z,33.30
2017-08-29T14:17:02.913Z,33.50
2017-08-29T14:19:31.194Z,33.40
2017-08-29T14:21:59.632Z,33.20
2017-08-29T14:24:27.869Z,32.80
2017-08-29T14:26:56.117Z,32.70
2017-08-29T14:29:24.413Z,32.50
2017-08-29T14:31:52.671Z,32.30
2017-08-29T14:34:21.005Z,32.20
2017-08-29T14:36:49.301Z,32.40
2017-08-29T14:39:17.632Z,32.50
2017-08-29T14:41:45.873Z,32.50
2017-08-29T14:44:14.329Z,32.60
2017-08-29T14:46:54.294Z,32.40
2017-08-29T14:49:22.668Z,32.00
2017-08-29T14:51:50.957Z,31.90
2017-08-29T14:54:19.205Z,31.40
2017-08-29T14:56:47.541Z,31.40
2017-08-29T14:59:15.794Z,31.40
2017-08-29T15:01:44.276Z,31.10
2017-08-29T15:04:12.579Z,30.70
2017-08-29T15:06:41.108Z,30.70
2017-08-29T15:09:09.358Z,30.60
2017-08-29T15:11:37.845Z,30.60
2017-08-29T15:14:06.150Z,30.80
2017-08-29T15:16:34.402Z,30.90
2017-08-29T15:19:03.504Z,31.00
2017-08-29T15:21:31.835Z,30.70
2017-08-29T15:24:00.860Z,30.80
2017-08-29T15:26:29.175Z,30.70
2017-08-29T15:28:57.452Z,30.80
2017-08-29T15:31:25.714Z,30.90
2017-08-29T15:33:54.009Z,30.90
2017-08-29T15:36:22.307Z,30.90
2017-08-29T15:38:50.553Z,30.90
2017-08-29T15:41:19.326Z,30.60
2017-08-29T15:43:47.614Z,30.40
2017-08-29T15:46:15.860Z,30.30
2017-08-29T15:48:44.204Z,30.30
2017-08-29T15:51:12.538Z,30.20
2017-08-29T15:53:41.057Z,30.00
2017-08-29T15:56:09.350Z,30.00
2017-08-29T15:58:37.653Z,30.00
2017-08-29T16:01:05.897Z,29.90
2017-08-29T16:03:34.168Z,29.50
2017-08-29T16:06:04.384Z,29.20
2017-08-29T16:08:33.242Z,29.20
2017-08-29T16:11:03.152Z,29.20
2017-08-29T16:13:31.511Z,29.20
2017-08-29T16:15:59.888Z,29.10
2017-08-29T16:18:28.161Z,29.20
2017-08-29T16:20:56.401Z,29.20
2017-08-29T16:23:24.897Z,29.20
2017-08-29T16:25:54.030Z,29.20
2017-08-29T16:28:22.293Z,29.10
2017-08-29T16:30:50.818Z,29.00
2017-08-29T16:33:19.214Z,28.80
2017-08-29T16:35:47.599Z,28.90
2017-08-29T16:38:15.852Z,28.80
2017-08-29T16:40:44.315Z,28.70
2017-08-29T16:43:13.008Z,28.80
2017-08-29T16:45:41.335Z,28.90
2017-08-29T16:48:09.714Z,29.00
2017-08-29T16:50:38.244Z,29.10
2017-08-29T16:53:06.597Z,29.20
2017-08-29T16:55:35.960Z,29.10
2017-08-29T16:58:04.469Z,29.20
2017-08-29T17:00:32.790Z,29.20
2017-08-29T17:03:01.189Z,29.30
2017-08-29T17:05:30.333Z,29.10
2017-08-29T17:07:58.620Z,28.90
2017-08-29T17:10:27.084Z,28.80
2017-08-29T17:12:55.316Z,28.60
2017-08-29T17:15:23.605Z,28.50
2017-08-29T17:17:51.897Z,28.40
2017-08-29T17:20:20.174Z,28.40
2017-08-29T17:22:48.440Z,28.30
2017-08-29T17:25:16.748Z,28.20
2017-08-29T17:27:45.177Z,28.10
2017-08-29T17:30:13.505Z,28.20
2017-08-29T17:32:41.813Z,28.10
2017-08-29T17:35:10.320Z,28.10
2017-08-29T17:37:39.179Z,28.10
2017-08-29T17:40:08.486Z,28.00
2017-08-29T17:42:36.798Z,27.90
2017-08-29T17:45:05.270Z,27.90
2017-08-29T17:47:33.712Z,27.70
2017-08-29T17:50:02.023Z,27.70
2017-08-29T17:52:30.304Z,27.50
2017-08-29T17:54:58.633Z,27.50
2017-08-29T17:57:26.911Z,27.60
2017-08-29T17:59:56.328Z,27.60
2017-08-29T18:02:24.617Z,27.60
2017-08-29T18:04:53.147Z,27.70
2017-08-29T18:07:21.464Z,27.70
2017-08-29T18:09:49.751Z,27.70
2017-08-29T18:12:18.096Z,27.70
2017-08-29T18:14:46.338Z,27.60
2017-08-29T18:17:14.651Z,27.60
2017-08-29T18:19:42.904Z,27.60
2017-08-29T18:22:11.174Z,27.50
2017-08-29T18:24:39.472Z,27.60
2017-08-29T18:27:07.751Z,27.60
2017-08-29T18:29:36.024Z,27.50
2017-08-29T18:32:04.305Z,27.30
2017-08-29T18:34:32.768Z,27.20
2017-08-29T18:37:01.062Z,27.20
2017-08-29T18:39:29.371Z,27.20
2017-08-29T18:41:57.780Z,27.30
2017-08-29T18:44:26.028Z,27.40
2017-08-29T18:46:54.307Z,27.30
2017-08-29T18:49:22.578Z,26.90
2017-08-29T18:51:50.871Z,26.40
2017-08-29T18:54:19.303Z,26.20
2017-08-29T18:56:47.895Z,26.00
2017-08-29T18:59:16.136Z,25.80
2017-08-29T19:01:44.410Z,25.70
2017-08-29T19:04:12.669Z,25.70
2017-08-29T19:06:40.952Z,25.50
2017-08-29T19:09:09.400Z,25.50
2017-08-29T19:11:37.702Z,25.40
2017-08-29T19:14:09.110Z,25.10
2017-08-29T19:16:37.416Z,25.00
2017-08-29T19:19:05.719Z,24.90
2017-08-29T19:21:35.200Z,24.90
2017-08-29T19:24:03.537Z,24.80
2017-08-29T19:26:31.779Z,24.70
2017-08-29T19:29:00.242Z,24.60
2017-08-29T19:31:28.904Z,24.40
2017-08-29T19:33:57.144Z,24.40
2017-08-29T19:36:25.434Z,24.30
2017-08-29T19:38:53.798Z,24.20
2017-08-29T19:41:22.132Z,24.20
2017-08-29T19:43:50.456Z,24.20
2017-08-29T19:46:19.141Z,24.20
2017-08-29T19:48:47.728Z,24.00
2017-08-29T19:51:16.002Z,23.90
2017-08-29T19:53:44.739Z,23.80
2017-08-29T19:56:13.429Z,23.70
2017-08-29T19:58:41.740Z,23.70
2017-08-29T20:01:10.797Z,23.70
2017-08-29T20:03:39.073Z,23.60
2017-08-29T20:06:07.380Z,23.60
2017-08-29T20:08:36.185Z,23.60
2017-08-29T20:11:04.444Z,23.50
2017-08-29T20:13:32.812Z,23.40
2017-08-29T20:16:01.085Z,23.40
2017-08-29T20:18:29.587Z,23.30
2017-08-29T20:20:58.070Z,23.30
2017-08-29T20:23:26.364Z,23.40
2017-08-29T20:25:54.627Z,23.50
2017-08-29T20:28:22.932Z,23.50
2017-08-29T20:30:51.189Z,23.60
2017-08-29T20:33:19.517Z,23.60
2017-08-29T20:35:47.873Z,23.50
2017-08-29T20:38:16.143Z,23.50
2017-08-29T20:40:45.301Z,23.40
2017-08-29T20:43:13.632Z,23.30
2017-08-29T20:45:42.166Z,23.20
2017-08-29T20:48:10.421Z,23.20
2017-08-29T20:50:38.735Z,23.20
2017-08-29T20:53:07.002Z,23.30
2017-08-29T20:55:35.258Z,23.50
2017-08-29T20:58:03.583Z,23.60
2017-08-29T21:00:31.824Z,23.50
2017-08-29T21:03:00.087Z,23.20
2017-08-29T21:05:29.261Z,23.20
2017-08-29T21:07:57.516Z,23.00
2017-08-29T21:10:25.776Z,22.90
2017-08-29T21:12:54.410Z,22.80
2017-08-29T21:15:23.185Z,22.80
2017-08-29T21:17:51.459Z,22.70
2017-08-29T21:20:19.899Z,22.90
2017-08-29T21:22:48.205Z,23.10
2017-08-29T21:25:16.464Z,23.30
2017-08-29T21:27:44.753Z,23.40
2017-08-29T21:30:13.061Z,23.40
2017-08-29T21:32:41.555Z,23.50
2017-08-29T21:35:09.819Z,23.60
2017-08-29T21:37:38.057Z,23.60
2017-08-29T21:40:06.339Z,23.50
2017-08-29T21:42:34.827Z,23.70
2017-08-29T21:45:03.081Z,23.60
2017-08-29T21:47:31.395Z,23.40
2017-08-29T21:49:59.666Z,23.50
2017-08-29T21:52:27.948Z,23.40
2017-08-29T21:54:56.205Z,23.50
2017-08-29T21:57:24.816Z,23.70
2017-08-29T21:59:53.311Z,23.80
2017-08-29T22:02:22.228Z,23.80
2017-08-29T22:04:51.791Z,23.70
2017-08-29T22:07:20.324Z,23.70
2017-08-29T22:09:49.102Z,23.70
2017-08-29T22:12:17.848Z,23.70
2017-08-29T22:14:46.331Z,23.60
2017-08-29T22:17:14.940Z,23.60
2017-08-29T22:19:43.867Z,23.50
2017-08-29T22:22:12.644Z,23.50
2017-08-29T22:24:42.144Z,23.50
2017-08-29T22:27:10.736Z,23.40
2017-08-29T22:29:39.604Z,23.40
2017-08-29T22:32:08.600Z,23.20
2017-08-29T22:34:37.372Z,23.10
2017-08-29T22:37:06.232Z,23.10
2017-08-29T22:39:35.271Z,23.00
2017-08-29T22:42:04.575Z,23.00
2017-08-29T22:44:33.685Z,22.90
2017-08-29T22:47:02.868Z,22.90
2017-08-29T22:49:31.391Z,23.00
2017-08-29T22:52:00.241Z,23.10
2017-08-29T22:54:28.658Z,22.90
2017-08-29T22:56:57.643Z,22.80
2017-08-29T22:59:26.424Z,22.70
2017-08-29T23:01:55.224Z,22.70
2017-08-29T23:04:23.684Z,22.70
2017-08-29T23:06:52.358Z,22.60
2017-08-29T23:09:21.910Z,22.60
2017-08-29T23:11:50.667Z,22.70
2017-08-29T23:14:19.864Z,22.50
2017-08-29T23:16:48.714Z,22.60
2017-08-29T23:19:17.319Z,22.60
2017-08-29T23:21:46.429Z,22.80
2017-08-29T23:24:15.208Z,22.80
2017-08-29T23:26:43.859Z,22.80
2017-08-29T23:29:12.711Z,22.80
2017-08-29T23:31:41.462Z,22.50
2017-08-29T23:34:10.548Z,22.50
2017-08-29T23:36:39.348Z,22.40
2017-08-29T23:39:08.211Z,22.50
2017-08-29T23:41:37.653Z,22.40
2017-08-29T23:44:06.343Z,22.40
2017-08-29T23:46:35.390Z,22.40
2017-08-29T23:49:03.853Z,22.50
2017-08-29T23:51:32.303Z,22.50
2017-08-29T23:54:00.726Z,22.40
2017-08-29T23:56:29.422Z,22.50
2017-08-29T23:58:58.269Z,22.60
